Terminal Aerodrome Forecast
Issued by NWS Austin/San Antonio, TX

Home | Current Version | Previous Version | Text Only | Print | Product List | Glossary On
Versions: 1 2 3 4 5 6 7 8 9 10 11 12 13 14 15 16 17
000
FTUS44 KEWX 042334
TAFAUS
TAF
KAUS 042334Z 0500/0606 14013KT P6SM SCT050
     FM050600 14006KT P6SM OVC015
     FM051000 14006KT P6SM BKN009 OVC015
     FM051500 15012KT P6SM BKN015
     FM051700 16014KT P6SM BKN030
     FM051900 15016KT P6SM BKN040
     FM060400 15013KT P6SM BKN015=

USA.gov is the U.S. government's official web portal to all federal, state and local government web resources and services.